Time;durP1;ratioP1;P1;durP2;ratioP2;P2;SDS_P1;SDS_P2;PMS_P1;PMS_P2;Temp;Humidity;BMP_temperature;BMP_pressure;BME280_temperature;BME280_humidity;BME280_pressure;Samples;Min_cycle;Max_cycle;Signal;HPM_P1;HPM_P2
2021/06/14 00:02:19;;;;;;;2.20;2.00;;;24.70;48.20;;;;;;4919262;29;20375;-80
2021/06/14 00:04:50;;;;;;;3.60;2.77;;;24.70;48.30;;;;;;4916223;29;20484;-80
2021/06/14 00:07:19;;;;;;;2.37;2.17;;;24.60;48.30;;;;;;4948111;29;20455;-80
2021/06/14 00:09:46;;;;;;;2.50;2.13;;;24.60;48.20;;;;;;4937997;29;20529;-79
2021/06/14 00:12:20;;;;;;;3.57;2.00;;;24.60;48.20;;;;;;4937587;29;20429;-80
2021/06/14 00:14:51;;;;;;;3.40;1.83;;;24.70;48.30;;;;;;4934783;29;21091;-80
2021/06/14 00:17:23;;;;;;;1.93;1.50;;;24.70;48.20;;;;;;4938107;29;20423;-80
2021/06/14 00:19:49;;;;;;;3.00;1.87;;;24.70;48.10;;;;;;4937047;29;20491;-79
2021/06/14 00:22:17;;;;;;;2.00;1.57;;;24.70;48.20;;;;;;4940016;29;20438;-80
2021/06/14 00:24:43;;;;;;;2.30;2.10;;;24.70;48.20;;;;;;4956750;29;20465;-80
2021/06/14 00:27:11;;;;;;;3.20;2.30;;;24.70;48.10;;;;;;4957013;29;20424;-80
2021/06/14 00:29:37;;;;;;;2.53;2.33;;;24.70;48.10;;;;;;4972602;29;20518;-80
2021/06/14 00:32:03;;;;;;;2.20;1.87;;;24.70;48.10;;;;;;4973249;29;20406;-80
2021/06/14 00:34:29;;;;;;;2.97;2.00;;;24.70;48.10;;;;;;4973735;28;20418;-80
2021/06/14 00:36:55;;;;;;;2.33;2.13;;;24.70;48.10;;;;;;4974415;28;20449;-80
2021/06/14 00:39:21;;;;;;;3.50;2.30;;;24.70;48.10;;;;;;4973060;28;20422;-80
2021/06/14 00:41:47;;;;;;;2.20;1.90;;;24.70;48.00;;;;;;4973021;28;20425;-80
2021/06/14 00:44:14;;;;;;;2.13;1.93;;;24.70;48.10;;;;;;4975890;28;20500;-80
2021/06/14 00:46:40;;;;;;;2.47;1.87;;;24.70;48.00;;;;;;4977300;28;20493;-80
2021/06/14 00:49:05;;;;;;;2.63;2.43;;;24.70;48.00;;;;;;4976587;29;20448;-80
2021/06/14 00:51:32;;;;;;;2.30;1.90;;;24.70;48.10;;;;;;4977334;28;20418;-79
2021/06/14 00:54:00;;;;;;;5.80;1.83;;;24.70;48.10;;;;;;4976465;28;20250;-79
2021/06/14 00:56:27;;;;;;;3.37;2.50;;;24.70;48.00;;;;;;4976002;29;20464;-79
2021/06/14 00:58:54;;;;;;;3.30;2.40;;;24.80;48.00;;;;;;4976714;28;20441;-79
2021/06/14 01:01:23;;;;;;;3.63;2.23;;;24.70;47.90;;;;;;4978321;28;20426;-79
2021/06/14 01:03:53;;;;;;;2.57;2.00;;;24.80;47.90;;;;;;4980712;28;20414;-80
2021/06/14 01:06:19;;;;;;;2.30;1.83;;;24.80;47.90;;;;;;4979825;29;20437;-80
2021/06/14 01:08:51;;;;;;;2.27;2.07;;;24.80;47.90;;;;;;4979936;29;20422;-80
2021/06/14 01:11:45;;;;;;;3.03;1.87;;;24.80;47.90;;;;;;4979944;29;20397;-79
2021/06/14 01:14:19;;;;;;;2.10;1.73;;;24.80;47.90;;;;;;4980116;29;20426;-80
2021/06/14 01:16:58;;;;;;;3.20;2.10;;;24.80;48.50;;;;;;4976530;29;20425;-80
2021/06/14 01:19:42;;;;;;;3.80;2.63;;;24.80;48.00;;;;;;4976100;29;20414;-80
2021/06/14 01:22:28;;;;;;;2.83;2.17;;;24.80;48.40;;;;;;4977059;28;20413;-80
2021/06/14 01:25:14;;;;;;;4.70;2.50;;;24.80;48.10;;;;;;4975807;29;20461;-80
2021/06/14 01:27:48;;;;;;;2.40;2.17;;;24.80;48.10;;;;;;4975495;29;20450;-80
2021/06/14 01:30:20;;;;;;;2.80;2.37;;;24.80;48.30;;;;;;4975625;29;20919;-80
2021/06/14 01:32:48;;;;;;;2.80;2.37;;;24.80;48.30;;;;;;4977249;28;20410;-80
2021/06/14 01:35:17;;;;;;;2.07;1.70;;;24.80;48.20;;;;;;4976252;28;20428;-81
2021/06/14 01:37:48;;;;;;;2.20;2.00;;;24.80;48.20;;;;;;4960061;29;20433;-81
2021/06/14 01:40:17;;;;;;;3.50;2.47;;;24.80;48.20;;;;;;4976130;28;20436;-81
2021/06/14 01:42:46;;;;;;;3.00;1.60;;;24.70;48.20;;;;;;4976655;28;20422;-81
2021/06/14 01:45:17;;;;;;;2.47;1.83;;;24.70;48.20;;;;;;4976444;29;20468;-81
2021/06/14 01:47:45;;;;;;;2.63;1.90;;;24.70;48.30;;;;;;4977147;29;20473;-81
2021/06/14 01:50:12;;;;;;;2.87;1.90;;;24.70;48.30;;;;;;4978207;28;20413;-80
2021/06/14 01:52:38;;;;;;;2.40;2.10;;;24.60;48.30;;;;;;4976015;29;20418;-79
2021/06/14 01:55:05;;;;;;;3.70;2.00;;;24.70;48.40;;;;;;4974706;28;20514;-79
2021/06/14 01:57:33;;;;;;;3.40;2.57;;;24.60;48.20;;;;;;4977468;28;20445;-80
2021/06/14 02:00:03;;;;;;;2.63;2.40;;;24.60;48.40;;;;;;4975579;29;20522;-80
2021/06/14 02:02:29;;;;;;;3.60;2.10;;;24.60;48.50;;;;;;4975335;28;20406;-79
2021/06/14 02:04:57;;;;;;;5.70;2.03;;;24.60;48.40;;;;;;4977002;28;20522;-80
2021/06/14 02:07:24;;;;;;;2.70;2.10;;;24.50;48.40;;;;;;4978710;29;20410;-81
2021/06/14 02:09:52;;;;;;;2.40;2.20;;;24.60;48.50;;;;;;4978839;28;20410;-80
2021/06/14 02:12:18;;;;;;;2.57;2.37;;;24.60;48.50;;;;;;4978806;28;20390;-81
2021/06/14 02:14:46;;;;;;;3.47;2.37;;;24.50;48.40;;;;;;4978975;28;20418;-81
2021/06/14 02:17:20;;;;;;;3.63;2.30;;;24.50;48.50;;;;;;4979329;28;20426;-81
2021/06/14 02:19:48;;;;;;;2.80;2.33;;;24.50;48.50;;;;;;4979136;29;20410;-81
2021/06/14 02:22:16;;;;;;;3.77;2.53;;;24.50;48.60;;;;;;4962597;29;20398;-80
2021/06/14 02:24:43;;;;;;;2.80;2.43;;;24.50;48.60;;;;;;4978953;29;20446;-81
2021/06/14 02:27:11;;;;;;;3.50;2.10;;;24.40;48.50;;;;;;4979465;28;20433;-80
2021/06/14 02:29:38;;;;;;;3.27;1.97;;;24.50;48.70;;;;;;4979170;28;20402;-80
2021/06/14 02:32:07;;;;;;;2.90;2.37;;;24.40;48.60;;;;;;4979141;28;20518;-80
2021/06/14 02:34:33;;;;;;;3.47;2.40;;;24.40;48.70;;;;;;4978450;29;20487;-81
2021/06/14 02:37:01;;;;;;;2.70;2.50;;;24.50;48.70;;;;;;4977855;29;20482;-80
2021/06/14 02:39:30;;;;;;;2.70;2.10;;;24.40;48.70;;;;;;4977437;28;20429;-80
2021/06/14 02:41:59;;;;;;;2.57;2.30;;;24.30;48.60;;;;;;4978687;28;20438;-80
2021/06/14 02:44:27;;;;;;;4.97;2.90;;;24.30;48.70;;;;;;4977853;28;20462;-80
2021/06/14 02:47:01;;;;;;;3.53;2.30;;;24.30;48.60;;;;;;4977420;28;20947;-79
2021/06/14 02:49:29;;;;;;;2.83;2.50;;;24.30;48.70;;;;;;4977766;29;20441;-79
2021/06/14 02:51:58;;;;;;;3.00;2.40;;;24.30;48.70;;;;;;4978016;28;20429;-80
2021/06/14 02:54:34;;;;;;;2.37;2.17;;;24.30;48.70;;;;;;4978994;29;20407;-80
2021/06/14 02:57:03;;;;;;;5.70;2.40;;;24.30;48.70;;;;;;4978473;29;20501;-80
2021/06/14 02:59:29;;;;;;;2.93;2.53;;;24.30;48.80;;;;;;4978148;28;20438;-80
2021/06/14 03:01:58;;;;;;;3.60;2.20;;;24.30;48.70;;;;;;4978792;28;20425;-80
2021/06/14 03:04:26;;;;;;;4.60;2.63;;;24.20;48.70;;;;;;4978189;28;20465;-79
2021/06/14 03:06:55;;;;;;;2.57;1.83;;;24.20;48.70;;;;;;4977576;28;20414;-80
2021/06/14 03:09:23;;;;;;;3.50;2.33;;;24.20;48.70;;;;;;4977987;29;20422;-81
2021/06/14 03:11:50;;;;;;;4.17;2.40;;;24.20;48.80;;;;;;4978514;28;20433;-80
2021/06/14 03:14:17;;;;;;;2.90;2.10;;;24.20;48.60;;;;;;4977473;28;20417;-81
2021/06/14 03:16:45;;;;;;;4.47;2.13;;;24.20;48.70;;;;;;4977280;28;20425;-80
2021/06/14 03:19:12;;;;;;;4.33;3.00;;;24.20;48.70;;;;;;4977685;28;20449;-81
2021/06/14 03:21:42;;;;;;;3.40;2.10;;;24.10;48.70;;;;;;4977131;28;20417;-81
2021/06/14 03:24:09;;;;;;;3.57;3.00;;;24.10;48.70;;;;;;4976898;28;20437;-81
2021/06/14 03:26:40;;;;;;;3.50;2.37;;;24.10;48.70;;;;;;4977054;29;20434;-80
2021/06/14 03:29:09;;;;;;;2.10;1.90;;;24.10;48.70;;;;;;4978749;28;20429;-80
2021/06/14 03:31:36;;;;;;;2.97;2.03;;;24.10;48.90;;;;;;4978435;28;20469;-80
2021/06/14 03:34:03;;;;;;;4.70;2.67;;;24.10;48.90;;;;;;4979249;28;20438;-80
2021/06/14 03:36:31;;;;;;;3.10;1.90;;;24.00;48.80;;;;;;4979030;28;20425;-80
2021/06/14 03:38:57;;;;;;;3.03;2.23;;;24.00;48.70;;;;;;4978063;29;20414;-80
2021/06/14 03:41:24;;;;;;;3.63;2.30;;;24.00;48.70;;;;;;4978888;28;20444;-80
2021/06/14 03:43:52;;;;;;;3.03;2.27;;;24.10;48.80;;;;;;4978200;29;20426;-80
2021/06/14 03:46:19;;;;;;;3.97;2.33;;;24.00;48.60;;;;;;4973511;29;20425;-79
2021/06/14 03:48:46;;;;;;;3.20;2.03;;;24.00;48.80;;;;;;4973890;28;20417;-80
2021/06/14 03:51:16;;;;;;;3.47;2.50;;;24.00;48.80;;;;;;4973059;29;20413;-79
2021/06/14 03:53:56;;;;;;;3.33;2.40;;;24.00;48.70;;;;;;4972996;29;20425;-79
2021/06/14 03:56:25;;;;;;;2.30;2.00;;;24.00;48.70;;;;;;4974892;28;20394;-80
2021/06/14 03:58:52;;;;;;;3.73;2.17;;;24.10;48.80;;;;;;4989326;28;20446;-80
2021/06/14 04:01:21;;;;;;;5.63;2.40;;;24.10;48.70;;;;;;4974908;28;20441;-79
2021/06/14 04:04:05;;;;;;;2.80;2.00;;;24.10;48.70;;;;;;4973442;29;20414;-80
2021/06/14 04:06:38;;;;;;;3.00;2.70;;;24.10;48.70;;;;;;4975874;29;20425;-81
2021/06/14 04:09:05;;;;;;;3.50;2.77;;;24.10;48.70;;;;;;4989474;28;20398;-80
2021/06/14 04:11:31;;;;;;;4.23;2.73;;;24.10;48.60;;;;;;4976759;29;20434;-80
2021/06/14 04:13:57;;;;;;;2.90;2.50;;;24.20;48.70;;;;;;4976986;29;20432;-81
2021/06/14 04:16:23;;;;;;;4.40;2.87;;;24.20;48.60;;;;;;4974025;29;20441;-79
2021/06/14 04:18:49;;;;;;;2.77;2.03;;;24.20;48.50;;;;;;4975551;28;20182;-79
2021/06/14 04:21:16;;;;;;;4.30;2.20;;;24.20;48.40;;;;;;4976571;29;20189;-78
2021/06/14 04:23:42;;;;;;;3.63;2.97;;;24.30;48.40;;;;;;4977577;28;20416;-80
2021/06/14 04:26:09;;;;;;;3.20;2.47;;;24.30;48.30;;;;;;4976401;29;20485;-80
2021/06/14 04:28:35;;;;;;;3.27;2.20;;;24.40;48.40;;;;;;4977099;28;20568;-80
2021/06/14 04:31:03;;;;;;;3.00;2.30;;;24.40;48.40;;;;;;4976953;29;20513;-80
2021/06/14 04:33:32;;;;;;;2.97;2.30;;;24.40;48.30;;;;;;4981059;29;20202;-81
2021/06/14 04:35:58;;;;;;;2.43;2.23;;;24.40;48.30;;;;;;4979346;28;20438;-82
2021/06/14 04:45:39;;;;;;;2.83;2.20;;;24.50;48.30;;;;;;4887835;29;20569;-84
2021/06/14 04:48:16;;;;;;;2.80;2.37;;;24.40;48.30;;;;;;4897318;29;20439;-81
2021/06/14 04:50:45;;;;;;;2.37;2.17;;;24.50;48.30;;;;;;4925649;29;20412;-81
2021/06/14 04:53:18;;;;;;;2.17;1.97;;;24.50;48.30;;;;;;4924587;29;20444;-81
2021/06/14 04:55:47;;;;;;;2.20;2.00;;;24.60;48.40;;;;;;4909606;29;20423;-81
2021/06/14 04:58:18;;;;;;;3.97;1.97;;;24.60;48.50;;;;;;4940815;29;20448;-81
2021/06/14 05:00:51;;;;;;;2.50;1.90;;;24.60;48.40;;;;;;4907892;29;20439;-81
2021/06/14 05:06:39;;;;;;;3.07;2.43;;;24.60;48.30;;;;;;4921788;29;20404;-81
2021/06/14 05:09:05;;;;;;;3.57;2.10;;;24.60;48.30;;;;;;4905921;29;20416;-81
2021/06/14 05:11:31;;;;;;;3.10;2.30;;;24.60;48.30;;;;;;4922180;29;20409;-80
2021/06/14 05:14:00;;;;;;;3.80;2.67;;;24.70;48.40;;;;;;4906195;29;20216;-80
2021/06/14 05:16:28;;;;;;;2.73;2.10;;;24.70;48.30;;;;;;4906183;29;20217;-80
2021/06/14 05:18:54;;;;;;;2.90;2.13;;;24.80;48.40;;;;;;4936678;29;20419;-80
2021/06/14 05:21:20;;;;;;;3.60;2.20;;;24.70;48.30;;;;;;4960284;29;20407;-80
2021/06/14 05:23:46;;;;;;;3.77;2.30;;;24.80;48.40;;;;;;4960201;29;20395;-80
2021/06/14 05:26:12;;;;;;;2.43;2.23;;;24.80;48.40;;;;;;4944717;29;20454;-80
2021/06/14 05:29:24;;;;;;;2.50;1.70;;;24.80;48.40;;;;;;4961179;28;20423;-79
2021/06/14 05:32:04;;;;;;;2.47;1.60;;;24.80;48.30;;;;;;4937709;29;20514;-79
2021/06/14 05:34:35;;;;;;;2.90;2.20;;;24.80;48.40;;;;;;4959507;28;20441;-79
2021/06/14 05:37:24;;;;;;;2.80;1.80;;;24.80;48.30;;;;;;4954221;29;20431;-80
2021/06/14 05:42:53;;;;;;;2.50;2.10;;;24.80;48.30;;;;;;4962202;29;20398;-79
2021/06/14 05:45:21;;;;;;;2.57;2.00;;;24.90;48.40;;;;;;4961129;29;20454;-78
2021/06/14 05:47:50;;;;;;;3.20;2.17;;;24.90;48.40;;;;;;4961833;29;20163;-78
2021/06/14 05:50:21;;;;;;;2.83;2.10;;;24.90;48.40;;;;;;5801757;23;20469;-79
2021/06/14 05:52:54;;;;;;;2.90;2.17;;;24.90;48.40;;;;;;4924630;29;20420;-79
2021/06/14 05:55:28;;;;;;;2.50;1.90;;;24.90;48.40;;;;;;4941178;29;20754;-80
2021/06/14 05:57:54;;;;;;;3.40;1.83;;;25.00;48.50;;;;;;4940851;29;20476;-80
2021/06/14 06:00:40;;;;;;;2.50;1.90;;;24.90;48.40;;;;;;4924113;29;20515;-80
2021/06/14 06:06:34;;;;;;;3.80;2.30;;;25.00;48.60;;;;;;4917679;29;20445;-79
2021/06/14 06:09:00;;;;;;;3.23;1.93;;;25.00;48.60;;;;;;4915704;29;20417;-81
2021/06/14 06:11:39;;;;;;;3.40;2.07;;;25.00;48.70;;;;;;4900917;29;20421;-80
2021/06/14 06:14:06;;;;;;;3.10;2.30;;;25.10;48.70;;;;;;4919591;29;20428;-80
2021/06/14 06:16:39;;;;;;;2.80;1.80;;;25.10;48.60;;;;;;4904232;29;20398;-80
2021/06/14 06:19:06;;;;;;;2.77;2.37;;;25.10;48.60;;;;;;4919542;29;20413;-80
2021/06/14 06:21:45;;;;;;;2.93;2.23;;;25.20;48.70;;;;;;4918729;29;20433;-80
2021/06/14 06:24:16;;;;;;;3.60;2.00;;;25.20;48.70;;;;;;4918465;29;20468;-80
2021/06/14 06:26:47;;;;;;;2.00;1.60;;;25.20;48.80;;;;;;4918089;29;20453;-80
2021/06/14 06:29:26;;;;;;;5.87;2.37;;;25.30;48.90;;;;;;4902615;29;20432;-80
2021/06/14 06:35:26;;;;;;;3.47;2.10;;;25.30;48.90;;;;;;4881083;29;20387;-80
2021/06/14 06:37:57;;;;;;;2.73;2.10;;;25.30;49.00;;;;;;4881565;29;20498;-80
2021/06/14 06:40:27;;;;;;;3.53;1.90;;;25.30;49.00;;;;;;4864701;29;20459;-80
2021/06/14 06:42:57;;;;;;;2.33;1.70;;;25.40;49.00;;;;;;4865174;29;20402;-80
2021/06/14 06:45:27;;;;;;;1.70;1.60;;;25.30;49.00;;;;;;4881257;29;20469;-80
2021/06/14 06:47:53;;;;;;;3.20;1.60;;;25.40;49.00;;;;;;4866605;29;20478;-80
2021/06/14 06:50:20;;;;;;;2.20;1.73;;;25.40;49.10;;;;;;4866074;29;20439;-80
2021/06/14 06:52:46;;;;;;;3.33;2.40;;;25.40;49.00;;;;;;4881889;29;20429;-80
2021/06/14 06:55:19;;;;;;;2.30;2.10;;;25.50;49.10;;;;;;4865003;29;20463;-80
2021/06/14 06:57:45;;;;;;;2.77;1.70;;;25.50;49.10;;;;;;4877630;29;20413;-82
2021/06/14 07:00:15;;;;;;;3.30;2.23;;;25.50;49.10;;;;;;4862331;29;20414;-81
2021/06/14 07:02:41;;;;;;;1.87;1.77;;;25.50;49.10;;;;;;4862691;29;20403;-80
2021/06/14 07:05:13;;;;;;;2.07;1.60;;;25.50;49.10;;;;;;4861970;29;20529;-81
2021/06/14 07:07:39;;;;;;;3.77;1.80;;;25.50;49.10;;;;;;4861833;29;20202;-81
2021/06/14 07:10:11;;;;;;;2.33;1.97;;;25.50;49.10;;;;;;4913364;29;20491;-80
2021/06/14 07:12:43;;;;;;;2.10;1.30;;;25.60;49.20;;;;;;4920957;29;20191;-81
2021/06/14 07:15:13;;;;;;;1.90;1.60;;;25.60;49.20;;;;;;4936268;29;20428;-81
2021/06/14 07:17:44;;;;;;;2.30;1.40;;;25.60;49.20;;;;;;4918727;29;20906;-81
2021/06/14 07:20:12;;;;;;;1.90;1.70;;;25.60;49.20;;;;;;4919231;29;20447;-81
2021/06/14 07:22:39;;;;;;;2.53;1.40;;;25.60;49.20;;;;;;4918543;29;20428;-81
2021/06/14 07:25:09;;;;;;;1.40;1.20;;;25.60;49.30;;;;;;4918710;29;20468;-81
2021/06/14 07:27:44;;;;;;;2.37;1.77;;;25.60;49.30;;;;;;4918634;29;20423;-81
2021/06/14 07:30:15;;;;;;;2.17;1.73;;;25.60;49.30;;;;;;4917265;29;20455;-79
2021/06/14 07:33:03;;;;;;;1.63;1.53;;;25.60;49.30;;;;;;4918474;29;20419;-79
2021/06/14 07:35:34;;;;;;;4.80;1.60;;;25.70;49.40;;;;;;4918167;29;20451;-79
2021/06/14 07:38:00;;;;;;;2.20;2.00;;;25.70;49.40;;;;;;4919412;29;20400;-79
2021/06/14 07:43:55;;;;;;;2.27;1.60;;;25.70;49.40;;;;;;4939702;29;20375;-79
2021/06/14 07:46:24;;;;;;;1.80;1.57;;;25.70;49.50;;;;;;4923014;29;20443;-82
2021/06/14 07:49:09;;;;;;;1.93;1.50;;;25.70;49.50;;;;;;4939213;29;20416;-79
2021/06/14 07:51:35;;;;;;;3.80;2.97;;;25.70;49.40;;;;;;4922914;29;20466;-79
2021/06/14 07:54:13;;;;;;;2.30;1.77;;;25.70;49.50;;;;;;4943101;29;20427;-81
2021/06/14 08:00:23;;;;;;;2.07;1.40;;;25.80;49.60;;;;;;4944515;29;20399;-82
2021/06/14 08:02:50;;;;;;;2.90;1.43;;;25.70;49.60;;;;;;4927416;29;20424;-79
2021/06/14 08:05:24;;;;;;;2.33;1.40;;;25.70;49.60;;;;;;4944090;29;20452;-80
2021/06/14 08:11:30;;;;;;;2.40;1.30;;;25.70;49.70;;;;;;4943994;29;20375;-80
2021/06/14 08:14:00;;;;;;;1.60;1.50;;;25.70;49.70;;;;;;4927651;29;20435;-81
2021/06/14 08:16:31;;;;;;;1.60;1.47;;;25.80;49.80;;;;;;4927280;29;20408;-81
2021/06/14 08:19:46;;;;;;;1.77;1.27;;;25.80;49.80;;;;;;4941803;29;20441;-81
2021/06/14 08:22:31;;;;;;;3.17;1.43;;;25.80;49.80;;;;;;4943266;29;20424;-81
2021/06/14 08:35:27;;;;;;;2.20;1.60;;;25.80;49.90;;;;;;4885790;29;20398;-80
2021/06/14 08:37:57;;;;;;;1.53;1.30;;;25.80;49.90;;;;;;4867208;29;20427;-80
2021/06/14 08:40:29;;;;;;;2.40;1.50;;;25.80;50.50;;;;;;4861430;29;20418;-82
2021/06/14 08:43:13;;;;;;;3.10;1.43;;;25.80;49.90;;;;;;4867275;29;20478;-80
2021/06/14 08:45:48;;;;;;;2.80;1.40;;;25.80;49.90;;;;;;4868471;29;20507;-80
2021/06/14 08:55:21;;;;;;;2.33;1.67;;;25.80;49.90;;;;;;4866907;29;20483;-82
2021/06/14 08:57:52;;;;;;;2.17;1.53;;;25.80;50.00;;;;;;4866317;29;20566;-81
2021/06/14 09:00:33;;;;;;;2.40;1.73;;;25.80;50.00;;;;;;4866406;29;20431;-81
2021/06/14 09:03:18;;;;;;;1.40;1.27;;;25.90;50.00;;;;;;4884915;29;20415;-80
2021/06/14 09:09:08;;;;;;;1.43;1.20;;;25.90;50.00;;;;;;4883381;29;20390;-80
2021/06/14 09:11:58;;;;;;;2.07;1.70;;;25.90;50.00;;;;;;4882112;29;20411;-80
2021/06/14 09:14:26;;;;;;;2.20;1.63;;;25.90;50.10;;;;;;4882367;29;20419;-80
2021/06/14 09:17:22;;;;;;;2.70;1.63;;;25.90;50.20;;;;;;4882484;29;20983;-80
2021/06/14 09:19:56;;;;;;;2.13;1.40;;;25.90;50.10;;;;;;4877406;29;20431;-79
2021/06/14 09:22:34;;;;;;;2.90;1.87;;;25.90;50.10;;;;;;4913317;29;20444;-80
2021/06/14 09:25:23;;;;;;;2.63;1.77;;;25.90;50.10;;;;;;4937632;29;20459;-81
2021/06/14 09:28:17;;;;;;;2.90;1.50;;;25.90;50.20;;;;;;4939409;29;20409;-80
2021/06/14 09:31:00;;;;;;;3.10;2.00;;;25.90;50.10;;;;;;4939892;29;20408;-79
2021/06/14 09:33:26;;;;;;;2.47;1.67;;;25.90;50.20;;;;;;4922706;29;20458;-79
2021/06/14 09:36:04;;;;;;;2.10;1.60;;;25.90;50.20;;;;;;4924192;29;20488;-80
2021/06/14 09:38:30;;;;;;;2.40;1.63;;;25.90;50.20;;;;;;4922855;29;20416;-80
2021/06/14 09:40:59;;;;;;;2.77;2.00;;;25.90;50.30;;;;;;4922870;29;20438;-79
2021/06/14 09:44:03;;;;;;;2.47;2.10;;;25.90;50.30;;;;;;4923031;29;20235;-79
2021/06/14 09:46:42;;;;;;;2.00;1.80;;;25.90;50.30;;;;;;4865413;29;20481;-78
2021/06/14 09:49:25;;;;;;;3.57;2.40;;;25.90;50.30;;;;;;4881492;29;20399;-80
2021/06/14 09:52:00;;;;;;;4.20;2.23;;;25.90;50.30;;;;;;4850154;29;20414;-80
2021/06/14 09:54:46;;;;;;;2.50;1.87;;;26.00;50.30;;;;;;4850351;29;20426;-80
2021/06/14 09:57:33;;;;;;;3.07;1.90;;;26.00;50.40;;;;;;4863704;29;20450;-81
2021/06/14 10:00:26;;;;;;;2.10;1.70;;;25.90;50.30;;;;;;4863599;29;20414;-80
2021/06/14 10:03:18;;;;;;;2.13;1.93;;;26.00;50.40;;;;;;4853488;29;20827;-80
2021/06/14 10:05:52;;;;;;;3.13;1.80;;;26.10;50.40;;;;;;4866004;29;20454;-80
2021/06/14 10:08:33;;;;;;;2.50;1.63;;;25.90;50.30;;;;;;4880198;29;20497;-79
2021/06/14 10:11:08;;;;;;;3.97;2.07;;;26.00;50.40;;;;;;4866781;29;20451;-80
2021/06/14 10:13:40;;;;;;;2.23;1.80;;;26.00;50.30;;;;;;4867499;29;20422;-80
2021/06/14 10:16:35;;;;;;;2.40;1.80;;;26.00;50.30;;;;;;4886095;29;20527;-80
2021/06/14 10:19:20;;;;;;;2.60;1.87;;;26.00;50.90;;;;;;4939695;29;20416;-80
2021/06/14 10:21:58;;;;;;;2.23;1.90;;;26.00;50.30;;;;;;4907537;29;20419;-79
2021/06/14 10:24:40;;;;;;;2.57;2.07;;;26.00;50.30;;;;;;4923591;29;20450;-80
2021/06/14 10:27:11;;;;;;;2.20;1.60;;;26.00;50.30;;;;;;4924016;29;20395;-80
2021/06/14 10:29:40;;;;;;;1.97;1.63;;;26.00;50.40;;;;;;4919766;29;20416;-82
2021/06/14 10:32:10;;;;;;;2.80;1.87;;;26.00;50.30;;;;;;4918500;29;20427;-81
2021/06/14 10:34:37;;;;;;;2.60;2.00;;;26.00;50.30;;;;;;4919079;29;20427;-81
2021/06/14 10:37:09;;;;;;;2.57;2.00;;;26.00;50.30;;;;;;4918608;29;20455;-82
2021/06/14 10:39:58;;;;;;;2.60;2.00;;;26.00;50.20;;;;;;4917979;29;20779;-82
2021/06/14 10:42:24;;;;;;;4.87;2.00;;;26.00;50.20;;;;;;4918926;29;20419;-81
2021/06/14 10:44:57;;;;;;;4.70;2.17;;;26.00;50.20;;;;;;4917686;29;20460;-82
2021/06/14 10:47:24;;;;;;;2.40;1.70;;;26.10;50.20;;;;;;4918282;29;20415;-82
2021/06/14 10:49:57;;;;;;;2.70;1.60;;;26.00;50.10;;;;;;4932280;29;20427;-81
2021/06/14 10:52:23;;;;;;;2.43;2.10;;;26.10;50.20;;;;;;4918555;29;20423;-82
2021/06/14 10:55:39;;;;;;;3.00;1.90;;;26.10;50.20;;;;;;4919608;29;20416;-81
2021/06/14 10:58:23;;;;;;;2.43;2.07;;;26.10;50.20;;;;;;4921696;29;20255;-81
2021/06/14 11:01:28;;;;;;;4.67;2.60;;;26.10;50.20;;;;;;4919588;29;20436;-81
2021/06/14 11:03:58;;;;;;;3.40;2.00;;;26.00;50.10;;;;;;4928133;29;20416;-80
2021/06/14 11:06:30;;;;;;;2.97;2.40;;;26.00;50.20;;;;;;4918182;29;20435;-80
2021/06/14 11:12:25;;;;;;;4.13;3.00;;;26.10;50.30;;;;;;4935900;29;20404;-80
2021/06/14 11:15:11;;;;;;;5.57;3.70;;;26.00;50.30;;;;;;4918443;29;20451;-80
2021/06/14 11:17:40;;;;;;;5.97;3.30;;;26.00;50.30;;;;;;4909838;29;20411;-80
2021/06/14 11:20:13;;;;;;;7.90;3.10;;;26.00;50.30;;;;;;4919001;29;20431;-80
2021/06/14 11:22:54;;;;;;;3.53;2.40;;;26.00;50.30;;;;;;4919324;29;20427;-80
2021/06/14 11:25:40;;;;;;;6.40;3.60;;;26.00;50.30;;;;;;4917382;29;20472;-80
2021/06/14 11:28:10;;;;;;;5.77;3.20;;;26.00;50.30;;;;;;4918649;29;20440;-80
2021/06/14 11:30:50;;;;;;;6.60;2.83;;;26.00;50.30;;;;;;4920186;29;20499;-80
2021/06/14 11:33:27;;;;;;;6.50;2.80;;;26.00;50.30;;;;;;4921529;29;20408;-80
2021/06/14 11:38:47;;;;;;;4.70;2.50;;;25.90;50.30;;;;;;4920168;29;20444;-80
2021/06/14 11:44:56;;;;;;;4.37;3.07;;;25.90;50.40;;;;;;4871114;29;20511;-81
2021/06/14 11:54:11;;;;;;;5.40;3.47;;;25.90;50.40;;;;;;4877264;29;20404;-81
2021/06/14 11:56:38;;;;;;;3.40;2.90;;;25.90;50.50;;;;;;4862254;29;20429;-80
2021/06/14 12:02:39;;;;;;;10.07;3.17;;;25.90;50.40;;;;;;4879967;29;20410;-80
2021/06/14 12:05:54;;;;;;;3.13;2.83;;;25.90;50.50;;;;;;4864726;29;20454;-80
2021/06/14 12:08:46;;;;;;;3.90;3.10;;;25.90;50.40;;;;;;4881824;29;20399;-80
2021/06/14 12:11:39;;;;;;;4.00;3.20;;;25.90;50.50;;;;;;4864591;29;20413;-80
2021/06/14 12:14:26;;;;;;;5.30;3.20;;;25.90;50.50;;;;;;4864175;29;20422;-81
2021/06/14 12:23:50;;;;;;;5.53;2.97;;;25.90;50.50;;;;;;4860080;29;20959;-82
2021/06/14 12:29:39;;;;;;;3.50;2.60;;;25.90;50.50;;;;;;4858028;29;20807;-81
2021/06/14 12:32:33;;;;;;;4.67;2.73;;;25.90;50.50;;;;;;4857272;29;20543;-81
2021/06/14 12:35:09;;;;;;;3.87;2.50;;;25.90;50.50;;;;;;4856048;29;20431;-81
2021/06/14 12:37:47;;;;;;;4.10;2.70;;;25.80;50.50;;;;;;4857804;29;20431;-81
2021/06/14 12:40:19;;;;;;;2.73;2.50;;;25.90;50.50;;;;;;4859292;29;21003;-81
2021/06/14 12:46:16;;;;;;;4.70;2.70;;;25.90;50.50;;;;;;4861271;29;20491;-82
2021/06/14 12:49:00;;;;;;;4.20;2.77;;;25.90;50.50;;;;;;4845442;29;21096;-82
2021/06/14 12:51:41;;;;;;;3.43;2.90;;;25.90;50.60;;;;;;4845347;29;20455;-80
2021/06/14 12:57:42;;;;;;;4.07;2.60;;;25.90;50.50;;;;;;4878772;29;20434;-81
2021/06/14 13:00:39;;;;;;;3.17;2.30;;;25.80;50.50;;;;;;4898460;29;20457;-81
2021/06/14 13:06:42;;;;;;;4.27;3.10;;;25.80;50.60;;;;;;4869305;29;20469;-82
2021/06/14 13:09:15;;;;;;;4.80;3.30;;;25.80;50.60;;;;;;4897713;29;20571;-81
2021/06/14 13:18:25;;;;;;;2.90;2.53;;;25.80;50.60;;;;;;4898431;29;20393;-81
2021/06/14 13:21:05;;;;;;;6.17;3.13;;;25.80;50.60;;;;;;4881449;29;20477;-81
2021/06/14 13:23:57;;;;;;;4.53;3.10;;;25.80;50.60;;;;;;4898174;29;20437;-81
2021/06/14 13:27:31;;;;;;;4.40;2.87;;;25.80;50.60;;;;;;4936395;29;20887;-81
2021/06/14 13:30:35;;;;;;;4.03;2.90;;;25.80;50.50;;;;;;4861356;29;20458;-84
2021/06/14 13:33:19;;;;;;;5.50;3.47;;;25.80;50.70;;;;;;4880281;29;20426;-79
2021/06/14 13:36:00;;;;;;;4.40;2.63;;;25.80;50.70;;;;;;4919926;29;20434;-80
2021/06/14 13:38:31;;;;;;;4.60;2.80;;;25.80;50.80;;;;;;4905596;29;20423;-80
2021/06/14 13:41:14;;;;;;;;;;;;;;;;;;;;;
2021/06/14 13:50:45;;;;;;;;;;;;;;;;;;;;;
2021/06/14 13:53:27;;;;;;;5.97;2.80;;;25.90;50.90;;;;;;4891261;29;20511;-79
2021/06/14 14:18:56;;;;;;;3.40;2.40;;;25.90;51.10;;;;;;4897517;29;20460;-80
2021/06/14 14:21:27;;;;;;;3.40;2.50;;;25.90;51.10;;;;;;4896869;29;20414;-80
2021/06/14 14:30:41;;;;;;;3.27;2.47;;;26.00;51.10;;;;;;4936461;29;20954;-79
2021/06/14 14:33:11;;;;;;;4.30;2.53;;;26.00;51.20;;;;;;4919864;29;20415;-79
2021/06/14 14:36:13;;;;;;;3.10;2.40;;;26.00;51.20;;;;;;4920063;29;20491;-79
2021/06/14 14:39:00;;;;;;;2.67;2.17;;;26.00;51.10;;;;;;4905285;29;20431;-79
2021/06/14 14:41:31;;;;;;;5.40;2.60;;;26.00;51.20;;;;;;4920277;29;20439;-79
2021/06/14 14:44:11;;;;;;;;;;;;;;;;;;;;;
2021/06/14 14:47:12;;;;;;;4.83;2.90;;;26.10;51.20;;;;;;4936680;29;20426;-80
2021/06/14 14:49:51;;;;;;;3.33;2.93;;;26.10;51.20;;;;;;4908420;29;20444;-80
2021/06/14 14:52:50;;;;;;;4.07;2.43;;;26.10;51.30;;;;;;4905566;29;20430;-80
2021/06/14 15:05:33;;;;;;;4.43;2.60;;;26.10;51.30;;;;;;4848312;29;20489;-81
2021/06/14 15:08:06;;;;;;;3.20;2.63;;;26.10;51.30;;;;;;4831257;29;20457;-81
2021/06/14 15:21:17;;;;;;;2.07;1.87;;;26.10;51.30;;;;;;4831794;29;20439;-81
2021/06/14 15:24:03;;;;;;;2.50;2.27;;;26.10;51.40;;;;;;4838028;29;20424;-80
2021/06/14 15:33:04;;;;;;;2.50;1.80;;;26.10;51.40;;;;;;4863503;29;20447;-81
2021/06/14 15:35:30;;;;;;;4.63;2.20;;;26.10;51.40;;;;;;4847301;29;20415;-80
2021/06/14 15:41:48;;;;;;;3.67;2.27;;;26.10;51.20;;;;;;4918998;29;20392;-80
2021/06/14 15:44:54;;;;;;;6.90;2.43;;;26.20;51.20;;;;;;4918497;29;20405;-80
2021/06/14 15:47:30;;;;;;;3.33;2.60;;;26.20;51.30;;;;;;4902812;29;20420;-80
2021/06/14 15:50:05;;;;;;;5.50;2.87;;;26.20;51.20;;;;;;4881583;29;20437;-80
2021/06/14 15:52:52;;;;;;;3.03;2.30;;;26.20;51.20;;;;;;4863472;29;20986;-79
2021/06/14 16:05:59;;;;;;;4.50;2.80;;;26.20;51.20;;;;;;4881883;29;20545;-79
2021/06/14 16:08:57;;;;;;;4.17;2.20;;;26.10;51.20;;;;;;4880360;29;20423;-79
2021/06/14 16:11:33;;;;;;;2.70;2.20;;;26.20;51.20;;;;;;4877404;29;20437;-79
2021/06/14 16:14:06;;;;;;;5.23;2.73;;;26.20;51.20;;;;;;4883471;29;20414;-79
2021/06/14 16:24:00;;;;;;;4.47;2.43;;;26.20;51.20;;;;;;4848216;29;20428;-80
2021/06/14 16:29:53;;;;;;;3.57;2.90;;;26.20;51.20;;;;;;4844431;29;20379;-80
2021/06/14 16:35:49;;;;;;;5.70;2.73;;;26.20;51.20;;;;;;4843944;29;20399;-80
2021/06/14 16:38:24;;;;;;;3.30;2.37;;;26.20;51.30;;;;;;4843308;29;20443;-80